createdAt,value
2022-09-29T00:00:51.525Z,14.77
2022-09-29T00:03:18.650Z,16.60
2022-09-29T00:05:50.433Z,10.30
2022-09-29T00:08:18.299Z,10.60
2022-09-29T00:10:45.748Z,10.20
2022-09-29T00:13:14.136Z,10.40
2022-09-29T00:15:41.234Z,9.70
2022-09-29T00:18:15.735Z,9.30
2022-09-29T00:20:42.325Z,9.77
2022-09-29T00:23:08.925Z,10.40
2022-09-29T00:25:35.507Z,11.10
2022-09-29T00:28:02.248Z,9.63
2022-09-29T00:30:28.980Z,9.73
2022-09-29T00:32:55.613Z,9.87
2022-09-29T00:35:22.168Z,10.63
2022-09-29T00:37:48.892Z,10.23
2022-09-29T00:40:15.515Z,10.20
2022-09-29T00:42:42.425Z,9.90
2022-09-29T00:45:16.473Z,10.00
2022-09-29T00:47:46.204Z,11.93
2022-09-29T00:50:23.190Z,9.03
2022-09-29T00:52:56.470Z,10.03
2022-09-29T00:55:25.638Z,9.70
2022-09-29T00:58:04.399Z,10.10
2022-09-29T01:00:31.766Z,8.97
2022-09-29T01:03:07.663Z,9.33
2022-09-29T01:05:38.683Z,8.93
2022-09-29T01:08:17.386Z,10.60
2022-09-29T01:10:45.064Z,9.67
2022-09-29T01:13:11.690Z,8.83
2022-09-29T01:15:38.848Z,9.23
2022-09-29T01:18:06.724Z,8.90
2022-09-29T01:20:35.976Z,8.90
2022-09-29T01:23:40.618Z,8.63
2022-09-29T01:26:31.335Z,8.73
2022-09-29T01:29:33.653Z,11.60
2022-09-29T01:32:17.125Z,8.30
2022-09-29T01:34:54.442Z,7.93
2022-09-29T01:37:59.507Z,8.63
2022-09-29T01:40:50.376Z,10.60
2022-09-29T01:43:27.580Z,8.90
2022-09-29T01:46:03.077Z,8.23
2022-09-29T01:48:34.320Z,8.07
2022-09-29T01:51:09.580Z,11.77
2022-09-29T01:53:42.477Z,10.20
2022-09-29T01:56:14.940Z,8.43
2022-09-29T01:59:00.015Z,8.10
2022-09-29T02:01:34.435Z,7.87
2022-09-29T02:04:07.708Z,7.83
2022-09-29T02:06:40.236Z,8.13
2022-09-29T02:09:15.158Z,8.03
2022-09-29T02:11:42.952Z,7.60
2022-09-29T02:14:19.446Z,8.47
2022-09-29T02:16:56.767Z,8.00
2022-09-29T02:19:27.107Z,8.10
2022-09-29T02:21:54.540Z,8.13
2022-09-29T02:24:25.162Z,8.20
2022-09-29T02:26:52.279Z,8.27
2022-09-29T02:29:19.496Z,7.50
2022-09-29T02:31:47.661Z,8.27
2022-09-29T02:34:18.897Z,7.20
2022-09-29T02:37:02.536Z,7.63
2022-09-29T02:39:35.019Z,8.17
2022-09-29T02:42:42.084Z,9.20
2022-09-29T02:45:49.207Z,7.37
2022-09-29T02:48:28.059Z,7.67
2022-09-29T02:51:34.376Z,8.03
2022-09-29T02:54:28.958Z,8.83
2022-09-29T02:57:34.807Z,11.13
2022-09-29T03:00:13.748Z,7.70
2022-09-29T03:02:42.284Z,8.43
2022-09-29T03:05:14.687Z,8.87
2022-09-29T03:07:42.168Z,12.13
2022-09-29T03:10:10.028Z,12.00
2022-09-29T03:12:37.021Z,8.40
2022-09-29T03:15:04.613Z,8.43
2022-09-29T03:17:31.327Z,8.10
2022-09-29T03:19:57.983Z,8.30
2022-09-29T03:22:25.412Z,7.90
2022-09-29T03:24:52.045Z,17.73
2022-09-29T03:27:18.669Z,8.80
2022-09-29T03:29:45.295Z,10.23
2022-09-29T03:32:12.047Z,8.03
2022-09-29T03:34:38.632Z,9.07
2022-09-29T03:37:05.425Z,11.40
2022-09-29T03:39:32.031Z,8.17
2022-09-29T03:41:58.683Z,8.43
2022-09-29T03:44:25.283Z,7.93
2022-09-29T03:46:51.927Z,7.87
2022-09-29T03:49:18.576Z,7.57
2022-09-29T03:51:45.316Z,10.20
2022-09-29T03:54:12.345Z,7.97
2022-09-29T03:56:39.380Z,8.63
2022-09-29T03:59:08.437Z,7.87
2022-09-29T04:01:35.956Z,7.63
2022-09-29T04:04:02.911Z,8.93
2022-09-29T04:06:29.613Z,11.30
2022-09-29T04:08:56.271Z,7.97
2022-09-29T04:11:22.850Z,8.03
2022-09-29T04:13:49.484Z,7.37
2022-09-29T04:16:16.153Z,10.47
2022-09-29T04:18:42.769Z,9.97
2022-09-29T04:21:09.769Z,8.73
2022-09-29T04:23:36.865Z,7.73
2022-09-29T04:26:04.022Z,12.10
2022-09-29T04:28:35.831Z,7.53
2022-09-29T04:31:03.383Z,11.10
2022-09-29T04:33:31.179Z,9.57
2022-09-29T04:35:58.929Z,7.90
2022-09-29T04:38:26.068Z,12.23
2022-09-29T04:40:52.865Z,13.00
2022-09-29T04:43:19.593Z,12.63
2022-09-29T04:45:46.235Z,10.77
2022-09-29T04:48:12.973Z,11.43
2022-09-29T04:50:39.802Z,9.60
2022-09-29T04:53:07.392Z,12.10
2022-09-29T04:55:33.983Z,8.73
2022-09-29T04:58:00.888Z,8.10
2022-09-29T05:00:27.488Z,7.47
2022-09-29T05:02:54.096Z,9.97
2022-09-29T05:05:20.670Z,8.90
2022-09-29T05:07:48.087Z,11.17
2022-09-29T05:10:14.922Z,9.07
2022-09-29T05:12:46.959Z,7.67
2022-09-29T05:15:13.624Z,11.97
2022-09-29T05:17:40.287Z,9.37
2022-09-29T05:20:07.209Z,7.90
2022-09-29T05:22:33.860Z,8.17
2022-09-29T05:25:00.500Z,10.77
2022-09-29T05:27:27.305Z,9.63
2022-09-29T05:29:53.907Z,7.17
2022-09-29T05:32:20.508Z,10.00
2022-09-29T05:34:47.115Z,12.43
2022-09-29T05:37:13.691Z,11.27
2022-09-29T05:39:41.232Z,9.80
2022-09-29T05:42:11.781Z,9.63
2022-09-29T05:44:38.449Z,9.03
2022-09-29T05:47:05.152Z,9.63
2022-09-29T05:49:33.004Z,10.57
2022-09-29T05:52:00.154Z,10.93
2022-09-29T05:54:27.493Z,9.93
2022-09-29T05:56:54.583Z,8.33
2022-09-29T05:59:21.361Z,13.37
2022-09-29T06:01:48.163Z,9.10
2022-09-29T06:04:15.236Z,10.87
2022-09-29T06:06:41.825Z,10.23
2022-09-29T06:09:08.671Z,12.40
2022-09-29T06:11:35.321Z,12.10
2022-09-29T06:14:03.414Z,13.57
2022-09-29T06:16:31.924Z,15.43
2022-09-29T06:19:00.849Z,13.53
2022-09-29T06:21:28.773Z,11.60
2022-09-29T06:23:56.729Z,12.90
2022-09-29T06:26:25.291Z,12.60
2022-09-29T06:28:53.123Z,11.67
2022-09-29T06:31:22.919Z,12.47
2022-09-29T06:33:49.649Z,12.33
2022-09-29T06:36:34.829Z,18.13
2022-09-29T06:39:02.156Z,14.10
2022-09-29T06:41:29.947Z,12.63
2022-09-29T06:43:56.881Z,12.33
2022-09-29T06:46:24.182Z,21.07
2022-09-29T06:48:50.792Z,16.00
2022-09-29T06:51:17.471Z,11.97
2022-09-29T06:53:46.433Z,15.30
2022-09-29T06:56:13.164Z,14.83
2022-09-29T06:58:40.297Z,14.50
2022-09-29T07:01:07.500Z,19.07
2022-09-29T07:03:35.193Z,13.80
2022-09-29T07:06:25.688Z,18.87
2022-09-29T07:08:56.360Z,17.20
2022-09-29T07:11:23.011Z,16.93
2022-09-29T07:13:54.454Z,16.83
2022-09-29T07:16:26.042Z,16.63
2022-09-29T07:18:53.369Z,15.33
2022-09-29T07:21:21.903Z,21.40
2022-09-29T07:23:48.929Z,13.97
2022-09-29T07:26:17.155Z,22.87
2022-09-29T07:28:45.197Z,13.80
2022-09-29T07:31:17.848Z,16.97
2022-09-29T07:33:45.517Z,15.00
2022-09-29T07:36:14.476Z,14.77
2022-09-29T07:38:41.664Z,15.90
2022-09-29T07:41:11.401Z,18.37
2022-09-29T07:43:38.670Z,14.50
2022-09-29T07:46:05.998Z,13.30
2022-09-29T07:48:34.338Z,14.00
2022-09-29T07:51:05.489Z,19.20
2022-09-29T07:53:33.268Z,13.60
2022-09-29T07:56:08.932Z,14.87
2022-09-29T07:58:37.323Z,12.50
2022-09-29T08:01:06.573Z,13.43
2022-09-29T08:03:33.650Z,19.63
2022-09-29T08:06:00.294Z,13.20
2022-09-29T08:08:27.367Z,16.23
2022-09-29T08:11:03.035Z,16.07
2022-09-29T08:13:31.103Z,13.67
2022-09-29T08:15:59.532Z,13.40
2022-09-29T08:18:27.720Z,13.20
2022-09-29T08:20:54.774Z,15.13
2022-09-29T08:23:23.182Z,13.03
2022-09-29T08:26:00.766Z,13.93
2022-09-29T08:28:32.554Z,14.13
2022-09-29T08:31:22.993Z,16.47
2022-09-29T08:33:51.396Z,12.97
2022-09-29T08:36:20.138Z,12.50
2022-09-29T08:38:51.892Z,15.07
2022-09-29T08:41:33.975Z,13.00
2022-09-29T08:44:37.648Z,12.80
2022-09-29T08:47:13.820Z,12.47
2022-09-29T08:50:12.537Z,11.80
2022-09-29T08:52:51.225Z,12.37
2022-09-29T08:55:21.683Z,11.60
2022-09-29T08:57:55.135Z,11.13
2022-09-29T09:00:33.194Z,11.50
2022-09-29T09:03:32.245Z,12.03
2022-09-29T09:06:11.322Z,13.20
2022-09-29T09:08:43.649Z,12.67
2022-09-29T09:11:30.625Z,11.50
2022-09-29T09:14:07.127Z,12.97
2022-09-29T09:16:48.890Z,11.23
2022-09-29T09:19:43.655Z,10.73
2022-09-29T09:22:25.579Z,13.03
2022-09-29T09:25:16.326Z,12.60
2022-09-29T09:27:49.386Z,15.57
2022-09-29T09:30:18.420Z,14.00
2022-09-29T09:32:52.629Z,13.90
2022-09-29T09:35:29.283Z,13.20
2022-09-29T09:38:01.321Z,18.73
2022-09-29T09:40:33.887Z,15.07
2022-09-29T09:43:06.571Z,17.63
2022-09-29T09:45:47.938Z,14.53
2022-09-29T09:48:24.001Z,16.83
2022-09-29T09:50:52.990Z,13.70
2022-09-29T09:53:33.444Z,17.37
2022-09-29T09:56:47.151Z,15.87
2022-09-29T09:59:29.298Z,14.23
2022-09-29T10:01:55.963Z,15.70
2022-09-29T10:04:24.549Z,18.20
2022-09-29T10:06:51.947Z,14.13
2022-09-29T10:09:19.917Z,14.03
2022-09-29T10:11:46.859Z,15.57
2022-09-29T10:14:19.167Z,14.73
2022-09-29T10:17:07.067Z,12.10
2022-09-29T10:19:52.497Z,13.10
2022-09-29T10:25:08.507Z,11.70
2022-09-29T10:27:36.067Z,10.33
2022-09-29T10:30:03.518Z,13.03
2022-09-29T10:32:38.604Z,11.33
2022-09-29T10:35:16.106Z,10.07
2022-09-29T10:37:47.658Z,11.20
2022-09-29T10:40:18.158Z,10.10
2022-09-29T10:42:48.169Z,9.80
2022-09-29T10:45:23.814Z,10.63
2022-09-29T10:48:00.276Z,9.50
2022-09-29T10:50:49.817Z,8.47
2022-09-29T10:53:40.918Z,8.30
2022-09-29T10:56:19.497Z,9.57
2022-09-29T10:59:00.249Z,9.73
2022-09-29T11:01:35.789Z,9.57
2022-09-29T11:04:27.404Z,7.70
2022-09-29T11:06:54.324Z,7.93
2022-09-29T11:09:21.212Z,8.13
2022-09-29T11:11:47.953Z,7.53
2022-09-29T11:14:37.133Z,9.83
2022-09-29T11:17:26.388Z,7.43
2022-09-29T11:19:55.550Z,9.27
2022-09-29T11:22:43.455Z,7.43
2022-09-29T11:25:22.451Z,8.00
2022-09-29T11:28:27.048Z,12.67
2022-09-29T11:31:20.099Z,10.07
2022-09-29T11:34:05.252Z,8.60
2022-09-29T11:37:06.876Z,9.53
2022-09-29T11:39:47.921Z,9.13
2022-09-29T11:42:46.781Z,9.37
2022-09-29T11:48:01.729Z,9.90
2022-09-29T11:50:35.653Z,11.67
2022-09-29T11:53:43.426Z,10.73
2022-09-29T11:56:54.165Z,9.80
2022-09-29T11:59:42.955Z,10.37
2022-09-29T12:02:23.713Z,13.40
2022-09-29T12:04:57.428Z,10.73
2022-09-29T12:07:46.937Z,10.47
2022-09-29T12:10:36.428Z,10.70
2022-09-29T12:13:13.391Z,10.40
2022-09-29T12:16:03.975Z,12.43
2022-09-29T12:19:23.094Z,10.60
2022-09-29T12:22:06.749Z,12.77
2022-09-29T12:24:54.178Z,11.03
2022-09-29T12:27:33.523Z,10.90
2022-09-29T12:30:13.224Z,12.37
2022-09-29T12:33:06.363Z,11.40
2022-09-29T12:36:33.182Z,11.53
2022-09-29T12:39:44.476Z,13.97
2022-09-29T12:42:11.289Z,11.33
2022-09-29T12:44:50.117Z,12.93
2022-09-29T12:47:25.101Z,11.17
2022-09-29T12:50:11.517Z,13.23
2022-09-29T12:52:46.884Z,12.10
2022-09-29T12:55:27.892Z,13.40
2022-09-29T12:57:59.364Z,12.70
2022-09-29T13:00:28.401Z,12.63
2022-09-29T13:03:22.176Z,13.93
2022-09-29T13:06:11.366Z,9.00
2022-09-29T13:09:02.277Z,8.33
2022-09-29T13:11:40.820Z,6.97
2022-09-29T13:14:17.705Z,6.20
2022-09-29T13:17:27.038Z,6.43
2022-09-29T13:20:15.426Z,5.10
2022-09-29T13:23:00.756Z,6.23
2022-09-29T13:25:36.135Z,5.80
2022-09-29T13:28:11.809Z,6.00
2022-09-29T13:30:38.821Z,6.07
2022-09-29T13:33:08.306Z,5.53
2022-09-29T13:35:42.463Z,6.33
2022-09-29T13:38:17.439Z,6.20
2022-09-29T13:41:10.852Z,5.77
2022-09-29T13:44:02.900Z,6.37
2022-09-29T13:46:32.288Z,7.33
2022-09-29T13:49:13.898Z,7.20
2022-09-29T13:51:46.595Z,6.90
2022-09-29T13:54:26.517Z,7.53
2022-09-29T13:57:11.955Z,7.63
2022-09-29T13:59:40.684Z,9.17
2022-09-29T14:02:35.138Z,8.67
2022-09-29T14:05:03.576Z,7.47
2022-09-29T14:07:49.675Z,9.70
2022-09-29T14:10:35.230Z,9.10
2022-09-29T14:13:04.219Z,8.23
2022-09-29T14:15:46.087Z,11.80
2022-09-29T14:18:20.641Z,8.43
2022-09-29T14:21:03.970Z,12.20
2022-09-29T14:23:50.201Z,7.60
2022-09-29T14:26:43.431Z,7.63
2022-09-29T14:29:29.785Z,7.93
2022-09-29T14:31:58.874Z,7.87
2022-09-29T14:34:31.088Z,8.83
2022-09-29T14:37:00.292Z,8.40
2022-09-29T14:39:28.990Z,10.20
2022-09-29T14:41:56.581Z,8.40
2022-09-29T14:44:53.926Z,7.90
2022-09-29T14:50:47.681Z,7.93
2022-09-29T14:53:40.042Z,8.30
2022-09-29T14:56:23.151Z,9.33
2022-09-29T14:59:27.210Z,9.53
2022-09-29T15:02:19.362Z,11.57
2022-09-29T15:04:47.468Z,8.23
2022-09-29T15:07:21.859Z,10.83
2022-09-29T15:09:59.476Z,8.90
2022-09-29T15:12:28.576Z,8.83
2022-09-29T15:14:57.916Z,8.90
2022-09-29T15:17:24.483Z,9.47
2022-09-29T15:20:03.042Z,9.80
2022-09-29T15:23:07.290Z,8.77
2022-09-29T15:25:42.533Z,9.13
2022-09-29T15:28:15.240Z,8.07
2022-09-29T15:30:42.961Z,7.77
2022-09-29T15:33:21.559Z,10.87
2022-09-29T15:35:52.638Z,9.10
2022-09-29T15:38:25.421Z,8.30
2022-09-29T15:40:58.951Z,8.43
2022-09-29T15:43:28.596Z,8.53
2022-09-29T15:46:02.491Z,8.80
2022-09-29T15:48:31.094Z,7.57
2022-09-29T15:50:58.303Z,8.73
2022-09-29T15:53:27.568Z,8.43
2022-09-29T15:55:55.531Z,10.63
2022-09-29T15:58:39.353Z,7.93
2022-09-29T16:01:07.270Z,9.10
2022-09-29T16:03:57.502Z,8.00
2022-09-29T16:06:38.021Z,8.47
2022-09-29T16:09:08.134Z,9.47
2022-09-29T16:11:37.376Z,7.80
2022-09-29T16:14:09.281Z,8.10
2022-09-29T16:16:41.914Z,10.27
2022-09-29T16:19:15.790Z,9.47
2022-09-29T16:21:42.730Z,12.87
2022-09-29T16:24:19.241Z,7.53
2022-09-29T16:26:57.108Z,8.97
2022-09-29T16:29:35.546Z,7.93
2022-09-29T16:32:38.390Z,7.57
2022-09-29T16:35:40.813Z,8.77
2022-09-29T16:38:23.649Z,11.97
2022-09-29T16:40:52.571Z,8.03
2022-09-29T16:43:33.403Z,11.67
2022-09-29T16:46:02.297Z,11.03
2022-09-29T16:48:35.806Z,8.33
2022-09-29T16:51:12.306Z,13.20
2022-09-29T16:53:50.286Z,12.43
2022-09-29T16:56:32.092Z,12.70
2022-09-29T16:59:13.436Z,21.27
2022-09-29T17:01:41.242Z,9.43
2022-09-29T17:04:09.044Z,9.33
2022-09-29T17:06:35.981Z,9.00
2022-09-29T17:09:04.320Z,10.23
2022-09-29T17:11:30.941Z,9.17
2022-09-29T17:13:57.591Z,9.60
2022-09-29T17:16:26.098Z,10.10
2022-09-29T17:18:53.831Z,8.97
2022-09-29T17:21:20.477Z,9.20
2022-09-29T17:23:47.084Z,8.87
2022-09-29T17:26:37.623Z,9.37
2022-09-29T17:29:04.738Z,9.60
2022-09-29T17:31:31.424Z,9.17
2022-09-29T17:33:58.052Z,8.87
2022-09-29T17:36:24.759Z,9.20
2022-09-29T17:38:51.946Z,10.13
2022-09-29T17:41:20.124Z,9.23
2022-09-29T17:43:47.346Z,8.63
2022-09-29T17:46:15.694Z,9.73
2022-09-29T17:48:42.759Z,10.83
2022-09-29T17:51:12.195Z,8.80
2022-09-29T17:53:38.994Z,8.23
2022-09-29T17:56:06.068Z,8.97
2022-09-29T17:58:32.706Z,7.70
2022-09-29T18:00:59.536Z,8.03
2022-09-29T18:03:26.264Z,9.73
2022-09-29T18:05:59.739Z,11.00
2022-09-29T18:08:29.170Z,9.70
2022-09-29T18:10:59.152Z,8.57
2022-09-29T18:13:27.668Z,9.83
2022-09-29T18:15:59.536Z,9.17
2022-09-29T18:18:26.234Z,8.83
2022-09-29T18:20:53.110Z,9.67
2022-09-29T18:23:22.964Z,8.80
2022-09-29T18:25:52.430Z,8.23
2022-09-29T18:28:19.751Z,11.57
2022-09-29T18:30:53.669Z,8.10
2022-09-29T18:33:20.998Z,9.93
2022-09-29T18:35:53.633Z,8.50
2022-09-29T18:38:20.571Z,8.50
2022-09-29T18:40:48.652Z,8.33
2022-09-29T18:43:15.246Z,10.20
2022-09-29T18:45:43.578Z,9.80
2022-09-29T18:48:15.525Z,7.70
2022-09-29T18:50:47.924Z,8.50
2022-09-29T18:53:17.494Z,9.20
2022-09-29T18:55:44.419Z,9.20
2022-09-29T18:58:15.863Z,8.43
2022-09-29T19:00:49.948Z,12.50
2022-09-29T19:03:20.846Z,8.40
2022-09-29T19:05:47.911Z,9.33
2022-09-29T19:08:15.355Z,8.57
2022-09-29T19:10:53.423Z,8.10
2022-09-29T19:13:20.577Z,7.93
2022-09-29T19:15:48.148Z,7.50
2022-09-29T19:18:23.277Z,8.10
2022-09-29T19:20:51.927Z,8.13
2022-09-29T19:23:21.807Z,8.17
2022-09-29T19:25:49.697Z,7.50
2022-09-29T19:28:18.767Z,8.77
2022-09-29T19:30:46.192Z,7.80
2022-09-29T19:33:16.612Z,16.03
2022-09-29T19:35:48.472Z,25.70
2022-09-29T19:38:15.473Z,12.60
2022-09-29T19:40:44.560Z,7.13
2022-09-29T19:43:14.225Z,13.37
2022-09-29T19:45:48.356Z,12.40
2022-09-29T19:48:17.302Z,6.70
2022-09-29T19:51:03.110Z,21.83
2022-09-29T19:53:30.080Z,6.47
2022-09-29T19:55:56.864Z,8.50
2022-09-29T19:58:23.867Z,8.73
2022-09-29T20:00:56.996Z,6.07
2022-09-29T20:03:23.663Z,6.10
2022-09-29T20:05:50.320Z,5.77
2022-09-29T20:08:16.908Z,5.37
2022-09-29T20:10:43.579Z,7.07
2022-09-29T20:13:10.453Z,4.67
2022-09-29T20:15:37.278Z,5.17
2022-09-29T20:18:04.437Z,5.03
2022-09-29T20:20:31.011Z,5.07
2022-09-29T20:22:58.250Z,4.77
2022-09-29T20:25:24.864Z,5.60
2022-09-29T20:27:52.022Z,5.00
2022-09-29T20:30:20.614Z,4.57
2022-09-29T20:32:48.082Z,4.20
2022-09-29T20:35:14.682Z,4.47
2022-09-29T20:37:41.293Z,4.23
2022-09-29T20:40:08.478Z,4.20
2022-09-29T20:42:38.250Z,3.30
2022-09-29T20:45:05.751Z,4.33
2022-09-29T20:47:32.427Z,5.00
2022-09-29T20:49:59.036Z,4.07
2022-09-29T20:52:25.803Z,3.97
2022-09-29T20:54:52.443Z,3.70
2022-09-29T20:57:19.147Z,6.37
2022-09-29T20:59:45.740Z,4.90
2022-09-29T21:02:13.378Z,4.80
2022-09-29T21:04:42.229Z,3.37
2022-09-29T21:07:29.003Z,3.10
2022-09-29T21:09:55.601Z,2.73
2022-09-29T21:12:22.173Z,3.93
2022-09-29T21:14:48.940Z,4.03
2022-09-29T21:17:15.597Z,5.73
2022-09-29T21:19:42.207Z,4.67
2022-09-29T21:22:09.073Z,2.77
2022-09-29T21:24:37.673Z,3.50
2022-09-29T21:27:05.281Z,2.93
2022-09-29T21:29:31.853Z,2.80
2022-09-29T21:31:58.421Z,3.07
2022-09-29T21:34:25.096Z,2.77
2022-09-29T21:36:51.669Z,2.80
2022-09-29T21:39:18.392Z,3.07
2022-09-29T21:41:45.940Z,5.40
2022-09-29T21:44:18.424Z,3.33
2022-09-29T21:46:46.026Z,2.83
2022-09-29T21:49:16.041Z,3.37
2022-09-29T21:51:45.320Z,4.10
2022-09-29T21:54:17.552Z,3.30
2022-09-29T21:56:46.000Z,3.47
2022-09-29T21:59:15.420Z,3.20
2022-09-29T22:01:42.936Z,3.30
2022-09-29T22:04:10.696Z,3.10
2022-09-29T22:06:38.635Z,3.30
2022-09-29T22:09:07.176Z,3.97
2022-09-29T22:11:38.143Z,3.93
2022-09-29T22:14:06.156Z,4.47
2022-09-29T22:16:34.298Z,3.10
2022-09-29T22:19:22.500Z,4.40
2022-09-29T22:21:50.552Z,5.67
2022-09-29T22:24:17.178Z,5.00
2022-09-29T22:26:43.803Z,3.60
2022-09-29T22:29:10.379Z,4.30
2022-09-29T22:31:40.105Z,3.37
2022-09-29T22:34:07.498Z,7.10
2022-09-29T22:36:35.108Z,4.47
2022-09-29T22:39:03.881Z,6.30
2022-09-29T22:41:30.856Z,3.90
2022-09-29T22:43:59.212Z,4.63
2022-09-29T22:46:27.982Z,5.10
2022-09-29T22:48:54.803Z,4.17
2022-09-29T22:51:21.526Z,7.13
2022-09-29T22:53:49.001Z,4.63
2022-09-29T22:56:21.761Z,5.27
2022-09-29T22:58:51.751Z,4.47
2022-09-29T23:01:19.757Z,5.83
2022-09-29T23:03:47.320Z,5.50
2022-09-29T23:06:14.499Z,4.80
2022-09-29T23:08:41.959Z,5.97
2022-09-29T23:11:14.283Z,7.43
2022-09-29T23:13:40.895Z,5.87
2022-09-29T23:16:12.365Z,5.50
2022-09-29T23:18:44.648Z,4.90
2022-09-29T23:21:19.211Z,5.40
2022-09-29T23:23:54.754Z,5.17
2022-09-29T23:26:22.594Z,5.83
2022-09-29T23:28:49.446Z,5.80
2022-09-29T23:31:16.095Z,5.60
2022-09-29T23:33:42.745Z,5.63
2022-09-29T23:36:10.900Z,6.57
2022-09-29T23:38:57.722Z,6.10
2022-09-29T23:41:27.024Z,6.20
2022-09-29T23:43:57.553Z,5.77
2022-09-29T23:46:26.188Z,6.00
2022-09-29T23:48:53.093Z,6.90
2022-09-29T23:51:20.596Z,6.83
2022-09-29T23:53:47.241Z,5.77
2022-09-29T23:56:13.912Z,5.73
2022-09-29T23:58:40.559Z,6.73
